Time;durP1;ratioP1;P1;durP2;ratioP2;P2;SDS_P1;SDS_P2;PMS_P1;PMS_P2;Temp;Humidity;BMP_temperature;BMP_pressure;BME280_temperature;BME280_humidity;BME280_pressure;Samples;Min_cycle;Max_cycle;Signal;HPM_P1;HPM_P2
2022/03/16 00:00:11;;;;;;;30.70;16.42;;;6.90;99.90;;;;;;5040802;28;20021;-77
2022/03/16 00:02:36;;;;;;;32.72;15.32;;;6.90;99.90;;;;;;5045877;28;20120;-75
2022/03/16 00:05:02;;;;;;;26.83;15.00;;;6.90;99.90;;;;;;5062055;28;20061;-77
2022/03/16 00:07:28;;;;;;;28.52;14.77;;;6.80;99.90;;;;;;5064772;28;20045;-77
2022/03/16 00:09:53;;;;;;;24.58;14.38;;;6.80;99.90;;;;;;5063895;28;20029;-77
2022/03/16 00:12:19;;;;;;;32.33;16.77;;;6.80;99.90;;;;;;5056535;28;20108;-77
2022/03/16 00:14:45;;;;;;;27.60;15.38;;;6.80;99.90;;;;;;5058936;28;20025;-76
2022/03/16 00:17:12;;;;;;;29.27;16.23;;;6.80;99.90;;;;;;5059143;28;20059;-76
2022/03/16 00:19:39;;;;;;;29.85;15.90;;;6.80;99.90;;;;;;5041552;28;20112;-77
2022/03/16 00:22:06;;;;;;;30.77;14.70;;;6.70;99.90;;;;;;5038547;28;20187;-75
2022/03/16 00:24:31;;;;;;;26.77;14.68;;;6.70;99.90;;;;;;5056974;28;20029;-76
2022/03/16 00:26:57;;;;;;;25.98;15.40;;;6.70;99.90;;;;;;5061971;28;20025;-75
2022/03/16 00:29:23;;;;;;;30.83;16.67;;;6.60;99.90;;;;;;5045600;28;20033;-78
2022/03/16 00:31:48;;;;;;;31.73;16.45;;;6.60;99.90;;;;;;5047137;28;20074;-76
2022/03/16 00:34:14;;;;;;;31.42;17.42;;;6.60;99.90;;;;;;5063656;28;20024;-77
2022/03/16 00:36:40;;;;;;;31.95;17.92;;;6.60;99.90;;;;;;5049367;28;20025;-75
2022/03/16 00:39:06;;;;;;;30.35;16.35;;;;;;;;;;5070371;28;20036;-74
2022/03/16 00:41:34;;;;;;;28.70;15.52;;;6.50;99.90;;;;;;5068323;28;20083;-77
2022/03/16 00:44:00;;;;;;;24.58;14.15;;;6.60;99.90;;;;;;5065599;28;20032;-74
2022/03/16 00:46:25;;;;;;;21.52;12.63;;;6.50;99.90;;;;;;5063998;28;20477;-76
2022/03/16 00:48:51;;;;;;;22.00;12.90;;;6.50;99.90;;;;;;5062616;28;20082;-77
2022/03/16 00:51:17;;;;;;;19.15;12.15;;;6.40;99.90;;;;;;5061919;28;20025;-77
2022/03/16 00:53:45;;;;;;;18.00;11.30;;;6.40;99.90;;;;;;5063006;28;20072;-76
2022/03/16 00:56:11;;;;;;;24.08;11.35;;;6.30;99.90;;;;;;5062102;28;20484;-76
2022/03/16 00:58:37;;;;;;;21.15;12.10;;;6.20;99.90;;;;;;5063518;28;20017;-77
2022/03/16 01:01:05;;;;;;;24.92;12.55;;;6.10;99.90;;;;;;5045427;28;20456;-77
2022/03/16 01:03:31;;;;;;;25.65;13.65;;;6.10;99.90;;;;;;5067370;28;20021;-77
2022/03/16 01:05:57;;;;;;;30.73;13.40;;;;;;;;;;5047382;28;20021;-77
2022/03/16 01:08:23;;;;;;;23.52;12.88;;;6.00;99.90;;;;;;5062843;28;20029;-78
2022/03/16 01:10:49;;;;;;;20.85;11.88;;;5.90;99.90;;;;;;5061152;28;20131;-76
2022/03/16 01:13:14;;;;;;;21.60;12.15;;;6.00;99.90;;;;;;5062556;28;20389;-77
2022/03/16 01:15:40;;;;;;;21.23;13.00;;;6.00;99.90;;;;;;5058969;28;20478;-77
2022/03/16 01:18:05;;;;;;;19.10;11.15;;;5.90;99.90;;;;;;5059958;28;20025;-75
2022/03/16 01:20:31;;;;;;;18.15;11.23;;;5.90;99.90;;;;;;5065637;28;20017;-75
2022/03/16 01:22:56;;;;;;;16.83;9.60;;;5.90;99.90;;;;;;5063945;28;20029;-76
2022/03/16 01:25:22;;;;;;;15.50;9.73;;;5.90;99.90;;;;;;5062913;28;20055;-76
2022/03/16 01:27:47;;;;;;;22.25;10.18;;;6.00;99.90;;;;;;5037543;28;20033;-76
2022/03/16 01:30:16;;;;;;;19.30;10.65;;;6.00;99.90;;;;;;5055192;28;20455;-77
2022/03/16 01:32:42;;;;;;;16.52;9.93;;;6.00;99.90;;;;;;5055089;28;20025;-76
2022/03/16 01:35:09;;;;;;;19.83;10.40;;;6.00;99.90;;;;;;5055272;28;20025;-76
2022/03/16 01:37:35;;;;;;;19.90;10.57;;;6.00;99.90;;;;;;5055099;28;20017;-77
2022/03/16 01:40:01;;;;;;;19.90;10.57;;;6.00;99.90;;;;;;5037341;28;20435;-77
2022/03/16 01:42:27;;;;;;;17.63;10.38;;;6.00;99.90;;;;;;5037268;28;20110;-76
2022/03/16 01:44:55;;;;;;;17.65;10.23;;;6.00;99.90;;;;;;5037667;28;20067;-77
2022/03/16 01:47:22;;;;;;;18.08;10.38;;;6.10;99.90;;;;;;5037658;28;20028;-77
2022/03/16 01:49:49;;;;;;;20.17;11.05;;;6.10;99.90;;;;;;5056164;28;20385;-76
2022/03/16 01:52:20;;;;;;;20.35;13.23;;;6.10;99.90;;;;;;5064977;28;20033;-78
2022/03/16 01:54:46;;;;;;;25.40;14.13;;;6.10;99.90;;;;;;5058295;28;20021;-78
2022/03/16 01:57:12;;;;;;;31.60;16.75;;;6.10;99.90;;;;;;5037638;28;20029;-77
2022/03/16 01:59:40;;;;;;;33.63;17.95;;;6.10;99.90;;;;;;5037159;28;20032;-76
2022/03/16 02:02:06;;;;;;;34.40;18.75;;;6.10;99.90;;;;;;5054889;28;20029;-78
2022/03/16 02:04:32;;;;;;;36.00;17.05;;;6.00;99.90;;;;;;5053937;28;20482;-77
2022/03/16 02:06:58;;;;;;;33.58;17.63;;;6.00;99.90;;;;;;5036069;28;20029;-76
2022/03/16 02:09:24;;;;;;;26.98;14.60;;;6.00;99.90;;;;;;5036614;28;20036;-77
2022/03/16 02:11:50;;;;;;;36.22;15.73;;;6.00;99.90;;;;;;5054793;28;20051;-77
2022/03/16 02:14:17;;;;;;;29.48;16.77;;;6.00;99.90;;;;;;5056243;28;20120;-77
2022/03/16 02:16:46;;;;;;;39.67;17.92;;;6.00;99.90;;;;;;5058022;28;20038;-77
2022/03/16 02:19:12;;;;;;;33.50;17.30;;;6.10;99.90;;;;;;5040756;28;20035;-76
2022/03/16 02:21:40;;;;;;;32.90;17.70;;;6.10;99.90;;;;;;5056022;28;20032;-76
2022/03/16 02:24:07;;;;;;;44.15;19.15;;;6.10;99.90;;;;;;5036455;28;20036;-77
2022/03/16 02:26:33;;;;;;;41.92;19.80;;;6.10;99.90;;;;;;5055229;28;20037;-77
2022/03/16 02:28:59;;;;;;;42.88;19.20;;;6.20;99.90;;;;;;5055563;28;20039;-79
2022/03/16 02:31:25;;;;;;;42.75;20.52;;;6.20;99.90;;;;;;5055715;28;20024;-78
2022/03/16 02:33:52;;;;;;;45.47;20.25;;;6.30;99.90;;;;;;5052825;28;20060;-79
2022/03/16 02:36:18;;;;;;;41.22;20.38;;;6.30;99.90;;;;;;5046653;28;20020;-77
2022/03/16 02:38:44;;;;;;;38.70;17.80;;;6.40;99.90;;;;;;5069590;28;20017;-78
2022/03/16 02:41:09;;;;;;;39.15;17.38;;;6.30;99.90;;;;;;5071823;28;20074;-76
2022/03/16 02:43:35;;;;;;;36.92;16.77;;;6.40;99.90;;;;;;5065308;28;20052;-78
2022/03/16 02:46:01;;;;;;;35.92;17.27;;;6.30;99.90;;;;;;5066638;28;20466;-78
2022/03/16 02:48:26;;;;;;;43.15;18.55;;;6.30;99.90;;;;;;5062333;28;20013;-77
2022/03/16 02:50:52;;;;;;;44.67;19.27;;;6.20;99.90;;;;;;5061651;28;20028;-78
2022/03/16 02:53:18;;;;;;;37.78;19.35;;;6.20;99.90;;;;;;5060356;28;20104;-78
2022/03/16 02:55:44;;;;;;;43.38;19.52;;;6.20;99.90;;;;;;5054198;28;20430;-77
2022/03/16 02:58:14;;;;;;;40.35;18.63;;;6.10;99.90;;;;;;5054467;28;20086;-77
2022/03/16 03:00:40;;;;;;;40.22;18.73;;;6.00;99.90;;;;;;5037051;28;20031;-75
2022/03/16 03:03:05;;;;;;;41.55;16.90;;;6.00;99.90;;;;;;5054635;28;20109;-77
2022/03/16 03:05:31;;;;;;;44.22;21.60;;;6.00;99.90;;;;;;5053546;28;20056;-77
2022/03/16 03:07:57;;;;;;;47.95;21.10;;;5.90;99.90;;;;;;5053219;28;20083;-76
2022/03/16 03:10:22;;;;;;;47.33;19.65;;;5.90;99.90;;;;;;5053683;28;20029;-77
2022/03/16 03:12:48;;;;;;;43.08;19.65;;;5.90;99.90;;;;;;5035967;28;20497;-77
2022/03/16 03:15:15;;;;;;;48.63;20.65;;;5.80;99.90;;;;;;5054479;28;20035;-80
2022/03/16 03:17:41;;;;;;;53.45;22.15;;;5.80;99.90;;;;;;5054182;28;20014;-76
2022/03/16 03:20:08;;;;;;;58.38;23.77;;;5.80;99.90;;;;;;5058031;28;20044;-77
2022/03/16 03:22:33;;;;;;;59.30;24.70;;;5.80;99.90;;;;;;5040675;28;20612;-77
2022/03/16 03:25:00;;;;;;;68.45;26.02;;;5.80;99.90;;;;;;5054167;28;20071;-77
2022/03/16 03:27:26;;;;;;;62.65;25.50;;;5.80;99.90;;;;;;5053273;28;20029;-77
2022/03/16 03:29:52;;;;;;;55.42;23.58;;;5.80;99.90;;;;;;5055155;28;20083;-78
2022/03/16 03:32:18;;;;;;;59.88;24.95;;;5.80;99.90;;;;;;5053853;28;20098;-78
2022/03/16 03:34:47;;;;;;;68.03;25.35;;;5.80;99.90;;;;;;5053905;28;20021;-77
2022/03/16 03:37:17;;;;;;;57.38;25.77;;;5.80;99.90;;;;;;5053576;28;20017;-75
2022/03/16 03:39:43;;;;;;;58.42;25.65;;;5.80;99.90;;;;;;5055029;28;20032;-77
2022/03/16 03:42:09;;;;;;;47.22;21.75;;;5.80;99.90;;;;;;5055307;28;20083;-77
2022/03/16 03:44:37;;;;;;;49.65;22.30;;;5.80;99.90;;;;;;5055449;28;20029;-77
2022/03/16 03:47:06;;;;;;;49.03;21.85;;;5.80;99.90;;;;;;5037575;28;20120;-78
2022/03/16 03:49:37;;;;;;;46.90;19.80;;;5.80;99.90;;;;;;5055749;28;20397;-77
2022/03/16 03:52:03;;;;;;;51.72;21.70;;;5.80;99.90;;;;;;5055548;28;20359;-77
2022/03/16 03:54:28;;;;;;;52.67;23.33;;;5.80;99.90;;;;;;5056327;28;20032;-74
2022/03/16 03:56:54;;;;;;;54.17;23.38;;;5.80;99.90;;;;;;5035102;28;20421;-77
2022/03/16 03:59:20;;;;;;;60.85;23.38;;;5.70;99.90;;;;;;5036978;28;20021;-76
2022/03/16 04:01:45;;;;;;;57.70;24.30;;;5.70;99.90;;;;;;5058249;28;20040;-77
2022/03/16 04:04:11;;;;;;;86.93;31.30;;;5.60;99.90;;;;;;5058912;28;20025;-77
2022/03/16 04:06:37;;;;;;;76.20;27.92;;;5.60;99.90;;;;;;5059707;28;20064;-77
2022/03/16 04:09:02;;;;;;;71.32;26.95;;;5.50;99.90;;;;;;5041709;28;20033;-76
2022/03/16 04:11:28;;;;;;;60.45;25.15;;;5.50;99.90;;;;;;5063366;28;20555;-77
2022/03/16 04:13:53;;;;;;;67.45;26.80;;;5.40;99.90;;;;;;5067397;28;20029;-77
2022/03/16 04:16:19;;;;;;;62.85;25.65;;;5.40;99.90;;;;;;5058339;28;20386;-77
2022/03/16 04:18:44;;;;;;;63.80;26.17;;;5.50;99.90;;;;;;5067650;28;20053;-78
2022/03/16 04:21:10;;;;;;;69.18;27.15;;;5.40;99.90;;;;;;5042273;28;20021;-77
2022/03/16 04:23:35;;;;;;;69.20;27.50;;;5.40;99.90;;;;;;5061338;28;20063;-76
2022/03/16 04:26:01;;;;;;;67.60;27.45;;;5.40;99.90;;;;;;5060770;28;20040;-77
2022/03/16 04:28:26;;;;;;;68.97;26.90;;;5.40;99.90;;;;;;5049459;28;20061;-76
2022/03/16 04:30:52;;;;;;;63.05;25.55;;;5.30;99.90;;;;;;5047649;28;20044;-77
2022/03/16 04:33:17;;;;;;;69.80;27.27;;;5.30;99.90;;;;;;5070154;28;20076;-78
2022/03/16 04:35:44;;;;;;;69.57;28.48;;;5.30;99.90;;;;;;5070679;28;20025;-75
2022/03/16 04:38:09;;;;;;;70.07;27.15;;;5.30;99.90;;;;;;5068314;28;20017;-76
2022/03/16 04:40:35;;;;;;;61.85;26.52;;;5.30;99.90;;;;;;5065936;28;20059;-76
2022/03/16 04:43:01;;;;;;;60.50;26.63;;;5.30;99.90;;;;;;5064178;28;20362;-77
2022/03/16 04:45:26;;;;;;;61.97;26.60;;;5.30;99.90;;;;;;5047048;28;20488;-75
2022/03/16 04:47:52;;;;;;;66.57;27.60;;;5.30;99.90;;;;;;5063271;28;20056;-77
2022/03/16 04:50:18;;;;;;;66.30;28.73;;;5.20;99.90;;;;;;5068199;28;20074;-77
2022/03/16 04:52:45;;;;;;;65.60;28.42;;;5.20;99.90;;;;;;5050685;28;20052;-77
2022/03/16 04:55:11;;;;;;;66.22;27.98;;;5.20;99.90;;;;;;5068404;28;20062;-77
2022/03/16 04:57:37;;;;;;;66.70;27.95;;;5.20;99.90;;;;;;5050535;28;20048;-78
2022/03/16 05:00:03;;;;;;;72.10;29.10;;;5.20;99.90;;;;;;5059960;28;20151;-77
2022/03/16 05:02:28;;;;;;;70.78;27.45;;;5.20;99.90;;;;;;5040692;28;20381;-77
2022/03/16 05:04:54;;;;;;;71.13;27.55;;;5.20;99.90;;;;;;5057627;28;20036;-77
2022/03/16 05:07:19;;;;;;;75.97;28.45;;;5.20;99.90;;;;;;5058412;28;20029;-78
2022/03/16 05:09:45;;;;;;;69.03;28.92;;;5.20;99.90;;;;;;5059024;28;20028;-76
2022/03/16 05:12:10;;;;;;;64.90;27.88;;;5.10;99.90;;;;;;5056492;28;20425;-76
2022/03/16 05:14:36;;;;;;;62.65;28.13;;;5.10;99.90;;;;;;5040137;28;20048;-79
2022/03/16 05:17:02;;;;;;;68.13;28.23;;;5.10;99.90;;;;;;5056962;28;20538;-77
2022/03/16 05:19:28;;;;;;;66.65;28.20;;;5.10;99.90;;;;;;5057277;28;20021;-77
2022/03/16 05:21:53;;;;;;;64.28;27.02;;;5.10;99.90;;;;;;5057037;28;20028;-76
2022/03/16 05:24:22;;;;;;;69.82;28.05;;;5.10;99.90;;;;;;5038576;28;20021;-77
2022/03/16 05:26:48;;;;;;;65.22;28.35;;;5.10;99.90;;;;;;5056532;28;20100;-76
2022/03/16 05:29:14;;;;;;;74.15;29.88;;;5.10;99.90;;;;;;5041135;28;20045;-76
2022/03/16 05:31:40;;;;;;;70.40;28.42;;;5.10;99.90;;;;;;5043528;28;20025;-75
2022/03/16 05:34:05;;;;;;;78.25;28.77;;;5.10;99.90;;;;;;5053419;28;20108;-77
2022/03/16 05:36:31;;;;;;;63.05;27.00;;;5.10;99.90;;;;;;5027310;28;20017;-76
2022/03/16 05:38:57;;;;;;;66.05;28.08;;;5.10;99.90;;;;;;5022903;28;20033;-78
2022/03/16 05:41:24;;;;;;;64.85;28.30;;;5.10;99.90;;;;;;5021550;28;20061;-77
2022/03/16 05:43:50;;;;;;;61.38;27.25;;;5.10;99.90;;;;;;5039647;28;20391;-76
2022/03/16 05:46:15;;;;;;;60.22;25.95;;;5.20;99.90;;;;;;5039304;28;20029;-75
2022/03/16 05:48:41;;;;;;;66.75;27.27;;;5.10;99.90;;;;;;5039424;28;20037;-76
2022/03/16 05:51:08;;;;;;;67.30;27.50;;;5.10;99.90;;;;;;5039823;28;20025;-76
2022/03/16 05:53:34;;;;;;;62.47;26.58;;;5.20;99.90;;;;;;5045430;28;20053;-75
2022/03/16 05:56:00;;;;;;;57.85;25.02;;;5.10;99.90;;;;;;5048864;28;20026;-77
2022/03/16 05:58:25;;;;;;;59.97;25.58;;;5.10;99.90;;;;;;5045183;28;20487;-76
2022/03/16 06:00:51;;;;;;;65.68;26.75;;;5.10;99.90;;;;;;5043832;28;20021;-76
2022/03/16 06:03:16;;;;;;;60.15;25.65;;;5.10;99.90;;;;;;5038915;28;20034;-76
2022/03/16 06:05:42;;;;;;;51.65;24.05;;;5.10;99.90;;;;;;5018340;28;20029;-77
2022/03/16 06:08:08;;;;;;;70.47;25.45;;;5.10;99.90;;;;;;5035551;28;20037;-76
2022/03/16 06:10:33;;;;;;;66.85;27.40;;;5.20;99.90;;;;;;5035875;28;20025;-76
2022/03/16 06:13:01;;;;;;;60.38;25.45;;;5.20;99.90;;;;;;5019774;28;20017;-76
2022/03/16 06:15:28;;;;;;;52.20;23.40;;;5.30;99.90;;;;;;5036048;28;20497;-76
2022/03/16 06:17:58;;;;;;;53.45;23.40;;;5.30;99.90;;;;;;5036814;28;20036;-76
2022/03/16 06:20:25;;;;;;;61.60;26.13;;;5.40;99.90;;;;;;5036248;28;20022;-77
2022/03/16 06:22:51;;;;;;;57.85;25.33;;;5.40;99.90;;;;;;5034890;28;20029;-77
2022/03/16 06:25:17;;;;;;;54.10;23.70;;;5.30;99.90;;;;;;5035856;28;20074;-77
2022/03/16 06:27:42;;;;;;;60.38;26.13;;;5.40;99.90;;;;;;5036120;28;20025;-78
2022/03/16 06:30:09;;;;;;;61.42;25.92;;;5.40;99.90;;;;;;5036898;28;20030;-78
2022/03/16 06:32:35;;;;;;;63.75;26.55;;;5.40;99.90;;;;;;5034705;28;20032;-77
2022/03/16 06:35:01;;;;;;;55.15;24.42;;;5.40;99.90;;;;;;5035879;28;20025;-77
2022/03/16 06:37:27;;;;;;;56.67;24.90;;;5.50;99.90;;;;;;5034408;28;20014;-78
2022/03/16 06:39:52;;;;;;;52.78;24.30;;;5.60;99.90;;;;;;5034834;28;20025;-77
2022/03/16 06:42:18;;;;;;;51.17;24.35;;;5.60;99.90;;;;;;5035698;28;20446;-80
2022/03/16 06:44:43;;;;;;;57.45;23.50;;;5.70;99.90;;;;;;5022763;28;20029;-79
2022/03/16 06:47:09;;;;;;;57.63;23.48;;;5.80;99.90;;;;;;5035597;28;20441;-77
2022/03/16 06:49:34;;;;;;;57.55;25.65;;;5.90;99.90;;;;;;5034475;28;20025;-77
2022/03/16 06:52:00;;;;;;;51.22;22.80;;;6.00;99.90;;;;;;5016501;28;20030;-77
2022/03/16 06:54:25;;;;;;;56.72;24.15;;;6.10;99.90;;;;;;5034997;28;20044;-79
2022/03/16 06:56:51;;;;;;;55.30;25.00;;;6.20;99.90;;;;;;5016805;28;20370;-77
2022/03/16 06:59:17;;;;;;;56.67;25.98;;;6.20;99.90;;;;;;5034370;28;20108;-78
2022/03/16 07:01:42;;;;;;;62.72;25.67;;;6.30;99.90;;;;;;5034924;28;20432;-77
2022/03/16 07:04:08;;;;;;;66.20;27.27;;;6.30;99.90;;;;;;5033775;28;20040;-77
2022/03/16 07:06:34;;;;;;;66.03;26.98;;;6.40;99.90;;;;;;5033977;28;20045;-77
2022/03/16 07:08:59;;;;;;;57.30;25.92;;;6.50;99.90;;;;;;5024091;23;20070;-80
2022/03/16 07:11:25;;;;;;;65.25;27.48;;;6.60;99.90;;;;;;5020317;28;20042;-78
2022/03/16 07:16:34;;;;;;;60.57;27.13;;;6.70;99.90;;;;;;5020216;28;20075;-78
2022/03/16 07:19:01;;;;;;;65.65;26.40;;;6.70;99.90;;;;;;5029273;28;20018;-77
2022/03/16 07:21:26;;;;;;;70.28;28.83;;;6.70;99.90;;;;;;5025727;28;20030;-79
2022/03/16 07:23:52;;;;;;;70.35;31.42;;;6.80;99.90;;;;;;5028243;28;20085;-76
2022/03/16 07:26:17;;;;;;;71.53;28.33;;;6.80;99.90;;;;;;5006052;28;20057;-79
2022/03/16 07:28:43;;;;;;;56.72;25.48;;;6.80;99.90;;;;;;5021880;28;20030;-78
2022/03/16 07:31:08;;;;;;;58.75;26.80;;;6.90;99.90;;;;;;5023924;28;20032;-79
2022/03/16 07:33:35;;;;;;;63.42;26.83;;;6.90;99.90;;;;;;5024119;28;20022;-78
2022/03/16 07:36:01;;;;;;;68.13;29.30;;;7.00;99.90;;;;;;5030848;28;20045;-80
2022/03/16 07:38:27;;;;;;;69.03;27.70;;;7.00;99.90;;;;;;5030934;28;20074;-80
2022/03/16 07:40:52;;;;;;;56.85;26.15;;;7.10;99.90;;;;;;5031295;28;20049;-79
2022/03/16 07:43:18;;;;;;;56.25;26.13;;;7.10;99.90;;;;;;5033245;28;20063;-79
2022/03/16 07:45:44;;;;;;;59.30;25.25;;;7.10;99.90;;;;;;5039964;28;20064;-77
2022/03/16 07:48:09;;;;;;;56.95;24.27;;;7.20;99.90;;;;;;5039685;28;20030;-78
2022/03/16 07:50:35;;;;;;;58.42;24.88;;;7.30;99.90;;;;;;5038110;28;20093;-78
2022/03/16 07:53:01;;;;;;;55.35;24.17;;;7.40;99.90;;;;;;5037065;28;20014;-80
2022/03/16 07:55:27;;;;;;;61.30;26.83;;;7.50;99.90;;;;;;5018846;28;20029;-75
2022/03/16 07:57:55;;;;;;;63.45;25.67;;;7.60;99.90;;;;;;5037022;28;20037;-76
2022/03/16 08:00:22;;;;;;;55.65;24.20;;;7.60;99.90;;;;;;5023382;28;20442;-77
2022/03/16 08:02:48;;;;;;;63.20;26.38;;;7.60;99.90;;;;;;5025398;28;20372;-80
2022/03/16 08:05:16;;;;;;;57.83;26.10;;;7.70;99.90;;;;;;5029838;28;20040;-76
2022/03/16 08:07:42;;;;;;;59.95;29.58;;;7.80;99.90;;;;;;5037308;28;20088;-76
2022/03/16 08:10:08;;;;;;;57.17;26.88;;;7.70;99.90;;;;;;5038086;28;20042;-77
2022/03/16 08:12:34;;;;;;;60.28;24.75;;;7.70;99.90;;;;;;5039961;28;20034;-79
2022/03/16 08:15:00;;;;;;;58.88;24.85;;;7.70;99.90;;;;;;5032080;28;20052;-79
2022/03/16 08:17:26;;;;;;;47.72;23.05;;;7.80;99.90;;;;;;5030882;28;20034;-78
2022/03/16 08:19:52;;;;;;;47.05;22.30;;;7.80;99.90;;;;;;5026323;28;20022;-80
2022/03/16 08:22:31;;;;;;;57.17;25.38;;;7.90;99.90;;;;;;5027789;28;20041;-79
2022/03/16 08:24:59;;;;;;;54.13;23.98;;;8.00;99.90;;;;;;5027929;28;20030;-79
2022/03/16 08:27:25;;;;;;;51.30;23.38;;;8.20;99.90;;;;;;5013327;28;20399;-77
2022/03/16 08:29:52;;;;;;;54.13;23.38;;;8.30;99.90;;;;;;5018578;28;20030;-77
2022/03/16 08:32:18;;;;;;;51.03;22.00;;;8.30;99.90;;;;;;5018477;28;20026;-80
2022/03/16 08:34:44;;;;;;;47.50;21.23;;;8.30;99.90;;;;;;5027294;28;20026;-80
2022/03/16 08:37:10;;;;;;;52.55;22.25;;;8.40;99.90;;;;;;5009993;28;20117;-80
2022/03/16 08:39:37;;;;;;;49.28;21.88;;;8.50;99.90;;;;;;5025289;28;20077;-78
2022/03/16 08:42:02;;;;;;;51.83;23.38;;;8.50;99.90;;;;;;5033419;28;20072;-79
2022/03/16 08:44:28;;;;;;;53.80;21.55;;;8.50;99.90;;;;;;5032031;28;20026;-79
2022/03/16 08:46:53;;;;;;;45.17;20.13;;;8.60;99.90;;;;;;5019574;28;20106;-82
2022/03/16 08:49:21;;;;;;;47.67;20.65;;;8.50;99.90;;;;;;5022314;28;20045;-78
2022/03/16 08:51:47;;;;;;;43.10;21.58;;;8.60;99.90;;;;;;5022231;28;20033;-78
2022/03/16 08:54:13;;;;;;;45.55;20.08;;;8.60;99.90;;;;;;5022684;28;20034;-80
2022/03/16 08:56:39;;;;;;;62.10;26.25;;;8.70;99.90;;;;;;5024319;28;20044;-78
2022/03/16 08:59:06;;;;;;;71.25;30.63;;;8.90;99.90;;;;;;5002911;28;20049;-82
2022/03/16 09:01:31;;;;;;;45.15;21.13;;;9.00;99.90;;;;;;5021806;28;20032;-77
2022/03/16 09:03:57;;;;;;;42.10;20.92;;;9.10;99.90;;;;;;5014850;28;20101;-76
2022/03/16 09:06:22;;;;;;;41.45;21.42;;;9.30;99.90;;;;;;5014183;28;20034;-77
2022/03/16 09:08:48;;;;;;;45.40;21.15;;;9.60;99.90;;;;;;4996161;28;20042;-76
2022/03/16 09:11:13;;;;;;;43.28;21.13;;;9.90;99.90;;;;;;5011409;28;20526;-76
2022/03/16 09:13:39;;;;;;;44.72;22.40;;;10.20;99.90;;;;;;4994547;28;20090;-76
2022/03/16 09:16:06;;;;;;;44.95;19.77;;;10.60;99.90;;;;;;5011874;28;20031;-76
2022/03/16 09:18:32;;;;;;;46.00;21.92;;;10.90;99.90;;;;;;4989138;28;20483;-78
2022/03/16 09:21:01;;;;;;;48.53;21.70;;;11.20;99.90;;;;;;4991380;28;20037;-76
2022/03/16 09:23:31;;;;;;;43.03;19.15;;;11.50;99.90;;;;;;4990279;28;20487;-77
2022/03/16 09:26:01;;;;;;;61.97;26.05;;;11.90;99.90;;;;;;4989967;28;20030;-76
2022/03/16 09:28:27;;;;;;;41.80;19.85;;;11.90;99.90;;;;;;5004201;28;20030;-76
2022/03/16 09:30:52;;;;;;;40.05;18.63;;;12.10;99.90;;;;;;4998503;28;20102;-77
2022/03/16 09:33:18;;;;;;;46.03;21.40;;;12.20;99.90;;;;;;4998699;28;20091;-78
2022/03/16 09:35:44;;;;;;;50.83;22.52;;;12.30;99.90;;;;;;4996817;28;20053;-77
2022/03/16 09:38:12;;;;;;;48.92;22.15;;;12.40;99.90;;;;;;4998014;28;20030;-77
2022/03/16 09:40:38;;;;;;;46.45;19.98;;;12.70;99.90;;;;;;4997558;28;20031;-82
2022/03/16 09:43:10;;;;;;;38.30;18.08;;;13.00;99.90;;;;;;4998358;28;20034;-80
2022/03/16 09:45:53;;;;;;;51.20;22.85;;;13.30;99.90;;;;;;5012386;28;20025;-78
2022/03/16 09:48:21;;;;;;;33.55;15.75;;;13.50;99.90;;;;;;4980126;28;20499;-77
2022/03/16 09:50:47;;;;;;;38.42;16.42;;;13.60;99.90;;;;;;4999799;28;20018;-78
2022/03/16 09:53:15;;;;;;;36.60;16.17;;;13.80;99.90;;;;;;4981954;28;20026;-78
2022/03/16 09:55:41;;;;;;;29.23;14.57;;;13.90;99.90;;;;;;5000994;28;20110;-76
2022/03/16 09:58:07;;;;;;;36.22;15.75;;;14.00;99.90;;;;;;4997658;28;20058;-75
2022/03/16 10:00:33;;;;;;;46.45;20.30;;;14.20;99.90;;;;;;4997289;28;20452;-76
2022/03/16 10:03:02;;;;;;;34.60;15.98;;;14.60;99.90;;;;;;5004176;28;20018;-77
2022/03/16 10:05:28;;;;;;;29.48;14.25;;;15.20;99.90;;;;;;5006660;28;20375;-74
2022/03/16 10:07:54;;;;;;;30.00;13.98;;;16.00;99.90;;;;;;5012212;28;20068;-77
2022/03/16 10:13:14;;;;;;;30.30;14.93;;;17.30;99.90;;;;;;5013285;28;20041;-78
2022/03/16 10:15:40;;;;;;;31.60;14.48;;;17.80;99.90;;;;;;5003880;28;20038;-76
2022/03/16 10:18:06;;;;;;;32.17;14.13;;;17.90;99.90;;;;;;4986404;28;20022;-77
2022/03/16 10:20:37;;;;;;;28.15;14.10;;;17.70;99.90;;;;;;4997651;28;20080;-78
2022/03/16 10:23:07;;;;;;;33.33;14.35;;;17.80;99.90;;;;;;5001488;28;20029;-80
2022/03/16 10:25:53;;;;;;;67.80;28.38;;;17.80;99.90;;;;;;5000140;28;20057;-79
2022/03/16 10:28:21;;;;;;;38.65;14.55;;;18.00;99.90;;;;;;4996603;28;20022;-78
2022/03/16 10:31:07;;;;;;;29.42;12.95;;;18.30;99.90;;;;;;4998679;28;20112;-78
2022/03/16 10:33:47;;;;;;;26.10;12.68;;;19.00;99.90;;;;;;4998801;28;20402;-78
2022/03/16 10:36:15;;;;;;;25.30;11.85;;;19.40;98.70;;;;;;4999455;28;20022;-77
2022/03/16 10:38:50;;;;;;;26.95;13.48;;;19.70;97.00;;;;;;5000502;28;20086;-79
2022/03/16 10:46:53;;;;;;;;;;;19.50;94.20;;;;;;5004862;28;20403;-77
2022/03/16 10:49:21;;;;;;;29.17;12.52;;;19.10;94.00;;;;;;4994107;28;20000;-77
2022/03/16 10:52:05;;;;;;;22.60;11.75;;;18.40;95.50;;;;;;4998932;28;20131;-79
2022/03/16 10:54:35;;;;;;;25.95;10.70;;;18.10;96.20;;;;;;5004070;28;20030;-76
2022/03/16 10:57:05;;;;;;;21.33;11.10;;;17.80;96.00;;;;;;5001103;28;20081;-76
2022/03/16 10:59:33;;;;;;;26.10;9.18;;;17.20;97.10;;;;;;5000355;28;20538;-78
2022/03/16 11:02:05;;;;;;;21.55;9.68;;;16.80;97.80;;;;;;4999566;28;20098;-77
2022/03/16 11:04:33;;;;;;;21.23;9.38;;;16.70;97.90;;;;;;4983910;28;20018;-78
2022/03/16 11:07:00;;;;;;;24.33;9.73;;;16.40;98.50;;;;;;5000389;28;20077;-77
2022/03/16 11:09:27;;;;;;;25.83;9.45;;;16.30;99.00;;;;;;5000951;28;20030;-78
2022/03/16 11:14:40;;;;;;;43.13;16.92;;;16.00;99.20;;;;;;5002095;28;20057;-77
2022/03/16 11:17:06;;;;;;;23.35;8.93;;;15.90;99.90;;;;;;4999992;28;20029;-77
2022/03/16 11:19:34;;;;;;;21.88;9.27;;;15.60;99.90;;;;;;4985926;28;20256;-78
2022/03/16 11:22:20;;;;;;;19.13;8.45;;;15.50;99.90;;;;;;4999409;28;20041;-75
2022/03/16 11:25:05;;;;;;;25.90;8.13;;;15.60;99.90;;;;;;4998067;28;20030;-76
2022/03/16 11:27:47;;;;;;;24.13;8.38;;;15.40;99.90;;;;;;4996033;28;20129;-77
2022/03/16 11:30:33;;;;;;;19.90;7.18;;;15.30;99.70;;;;;;4996951;28;20053;-76
2022/03/16 11:33:04;;;;;;;21.60;7.97;;;15.20;99.60;;;;;;4995703;28;20025;-77
2022/03/16 11:35:35;;;;;;;18.85;6.97;;;;;;;;;;4995933;28;20023;-78
2022/03/16 11:38:09;;;;;;;18.15;6.95;;;;;;;;;;4978161;28;20076;-75
2022/03/16 11:40:36;;;;;;;17.13;6.35;;;;;;;;;;4995452;28;20448;-76
2022/03/16 11:43:05;;;;;;;22.73;6.75;;;;;;;;;;4977486;28;20036;-75
2022/03/16 11:45:31;;;;;;;19.40;6.60;;;;;;;;;;4976788;28;20027;-76
2022/03/16 11:47:57;;;;;;;20.38;6.57;;;;;;;;;;4994597;28;20030;-75
2022/03/16 11:50:23;;;;;;;21.98;6.95;;;;;;;;;;4993935;28;20022;-75
2022/03/16 11:53:05;;;;;;;24.38;6.60;;;;;;;;;;4994443;28;20081;-77
2022/03/16 11:55:42;;;;;;;24.13;7.57;;;;;;;;;;4994691;28;20045;-77
2022/03/16 11:58:18;;;;;;;23.42;7.55;;;;;;;;;;4997967;28;20019;-76
2022/03/16 12:00:45;;;;;;;30.20;7.18;;;;;;;;;;4995832;28;20411;-75
2022/03/16 12:03:20;;;;;;;24.88;7.35;;;;;;;;;;4995240;28;20056;-76
2022/03/16 12:05:59;;;;;;;39.90;14.10;;;;;;;;;;4996506;28;20030;-74
2022/03/16 12:08:30;;;;;;;17.17;6.28;;;;;;;;;;4994964;28;20034;-77
2022/03/16 12:12:51;;;;;;;24.75;6.90;;;;;;;;;;4994149;28;20034;-77
2022/03/16 12:13:45;;;;;;;19.75;7.30;;;;;;;;;;4994655;28;20038;-79
2022/03/16 12:16:13;;;;;;;29.50;8.43;;;;;;;;;;4979382;28;20030;-77
2022/03/16 12:18:40;;;;;;;30.85;12.55;;;;;;;;;;4996070;28;20041;-77
2022/03/16 12:21:07;;;;;;;18.63;8.25;;;;;;;;;;4996406;28;20066;-77
2022/03/16 12:23:54;;;;;;;21.67;7.78;;;;;;;;;;5000101;28;20086;-77
2022/03/16 12:26:24;;;;;;;22.42;7.43;;;;;;;;;;4998403;28;20065;-78
2022/03/16 12:28:58;;;;;;;29.95;7.13;;;;;;;;;;4999207;28;20065;-78
2022/03/16 12:31:24;;;;;;;18.60;6.60;;;;;;;;;;4997969;28;20491;-77
2022/03/16 12:33:55;;;;;;;22.55;9.10;;;;;;;;;;4997735;28;20030;-78
2022/03/16 12:36:32;;;;;;;22.80;9.50;;;;;;;;;;4998233;28;20045;-76
2022/03/16 12:39:07;;;;;;;22.85;9.23;;;;;;;;;;4998566;28;20023;-77
2022/03/16 12:44:18;;;;;;;22.70;8.88;;;;;;;;;;4999310;28;20034;-78
2022/03/16 12:47:04;;;;;;;30.75;9.35;;;;;;;;;;5003446;28;20038;-76
2022/03/16 12:49:32;;;;;;;28.50;11.55;;;;;;;;;;5002710;28;20030;-76
2022/03/16 12:52:02;;;;;;;23.95;9.20;;;;;;;;;;5004790;28;20026;-77
2022/03/16 12:54:29;;;;;;;22.15;8.57;;;;;;;;;;5004012;28;20076;-76
2022/03/16 12:56:58;;;;;;;26.63;9.68;;;;;;;;;;4981408;28;20035;-77
2022/03/16 12:59:29;;;;;;;30.52;11.93;;;;;;;;;;4999441;28;20022;-76
2022/03/16 13:02:03;;;;;;;24.05;11.93;;;;;;;;;;4998682;28;20026;-76
2022/03/16 13:04:29;;;;;;;20.83;10.30;;;;;;;;;;5010360;28;20022;-76